Time;durP1;ratioP1;P1;durP2;ratioP2;P2;SDS_P1;SDS_P2;PMS_P1;PMS_P2;Temp;Humidity;BMP_temperature;BMP_pressure;BME280_temperature;BME280_humidity;BME280_pressure;Samples;Min_cycle;Max_cycle;Signal;HPM_P1;HPM_P2
2022/03/28 00:02:09;;;;;;;22.85;9.38;;;;;;;6.65;75.14;102679.56;5022999;28;20029;-79
2022/03/28 00:04:35;;;;;;;18.85;9.35;;;;;;;6.63;74.92;102673.34;5014999;28;20973;-78
2022/03/28 00:07:00;;;;;;;17.08;8.95;;;;;;;6.60;75.07;102674.06;5021769;28;20041;-79
2022/03/28 00:09:26;;;;;;;19.75;9.27;;;;;;;6.60;75.29;102683.50;5018825;28;20282;-78
2022/03/28 00:11:51;;;;;;;21.48;9.98;;;;;;;6.58;75.54;102675.63;5012980;28;20869;-78
2022/03/28 00:14:16;;;;;;;20.90;10.48;;;;;;;6.58;75.35;102675.63;5015578;28;20021;-78
2022/03/28 00:16:42;;;;;;;21.45;10.05;;;;;;;6.59;75.29;102671.38;5015984;28;20025;-78
2022/03/28 00:19:07;;;;;;;20.08;9.38;;;;;;;6.57;74.71;102665.16;5014954;28;20045;-78
2022/03/28 00:21:32;;;;;;;22.77;10.25;;;;;;;6.53;74.54;102651.13;5014256;28;20018;-79
2022/03/28 00:23:58;;;;;;;23.38;9.75;;;;;;;6.49;74.80;102651.69;5011054;28;20037;-78
2022/03/28 00:26:23;;;;;;;19.35;10.27;;;;;;;6.49;74.88;102643.00;5010618;28;20311;-78
2022/03/28 00:28:48;;;;;;;20.33;9.32;;;;;;;6.45;74.58;102641.91;5013166;28;20305;-78
2022/03/28 00:31:15;;;;;;;22.52;9.75;;;;;;;6.40;74.77;102636.41;5013412;28;20022;-78
2022/03/28 00:33:40;;;;;;;21.15;10.00;;;;;;;6.38;75.20;102639.69;5012544;28;20024;-79
2022/03/28 00:36:05;;;;;;;19.08;9.30;;;;;;;6.38;74.01;102634.50;5016873;28;20025;-78
2022/03/28 00:38:30;;;;;;;23.08;10.55;;;;;;;6.34;74.10;102635.09;5014954;28;20022;-80
2022/03/28 00:40:56;;;;;;;22.30;9.90;;;;;;;6.32;75.02;102634.09;5009920;28;20022;-80
2022/03/28 00:43:21;;;;;;;16.40;8.60;;;;;;;6.26;74.90;102622.50;5016154;28;20204;-80
2022/03/28 00:45:46;;;;;;;18.25;9.27;;;;;;;6.27;75.11;102623.38;5013738;28;20077;-80
2022/03/28 00:48:12;;;;;;;20.02;9.85;;;;;;;6.28;75.81;102622.59;5014738;28;20018;-80
2022/03/28 00:50:38;;;;;;;20.60;10.25;;;;;;;6.26;75.53;102627.69;5021404;28;20026;-80
2022/03/28 00:53:05;;;;;;;16.35;8.50;;;;;;;6.20;75.33;102622.09;5016548;28;20017;-80
2022/03/28 00:55:31;;;;;;;20.38;8.75;;;;;;;6.17;75.38;102623.53;5011889;28;20026;-80
2022/03/28 00:57:57;;;;;;;23.77;9.38;;;;;;;6.11;75.20;102613.66;5006657;28;20352;-80
2022/03/28 01:00:23;;;;;;;23.75;9.48;;;;;;;6.09;75.50;102618.72;5012072;28;20053;-80
2022/03/28 01:02:48;;;;;;;21.27;9.93;;;;;;;6.07;75.90;102609.97;5015817;28;20022;-80
2022/03/28 01:05:14;;;;;;;21.88;10.13;;;;;;;6.07;75.67;102609.97;5017723;28;20160;-80
2022/03/28 01:07:41;;;;;;;20.02;9.60;;;;;;;6.02;74.76;102606.13;5010458;28;20089;-80
2022/03/28 01:10:10;;;;;;;19.33;8.45;;;;;;;5.93;74.21;102605.47;5011545;28;20090;-80
2022/03/28 01:12:37;;;;;;;18.27;8.18;;;;;;;5.83;74.14;102600.44;5010130;28;20022;-80
2022/03/28 01:15:04;;;;;;;16.20;8.52;;;;;;;5.70;74.54;102606.41;5017969;28;20029;-80
2022/03/28 01:20:13;;;;;;;17.38;8.00;;;;;;;5.54;74.96;102597.53;5014003;28;20284;-80
2022/03/28 01:22:39;;;;;;;20.10;7.70;;;;;;;5.49;75.25;102590.25;5017821;28;20030;-80
2022/03/28 01:25:06;;;;;;;18.83;8.45;;;;;;;5.45;75.31;102586.53;5022504;28;20045;-80
2022/03/28 01:27:33;;;;;;;24.15;9.90;;;;;;;5.51;76.01;102589.56;5021428;28;20070;-80
2022/03/28 01:29:58;;;;;;;20.05;9.00;;;;;;;5.55;76.62;102588.13;5020285;28;20018;-80
2022/03/28 01:32:24;;;;;;;18.55;9.02;;;;;;;5.59;75.92;102584.97;5014448;28;20025;-80
2022/03/28 01:34:49;;;;;;;19.83;9.18;;;;;;;5.61;76.06;102580.78;5016382;28;20017;-80
2022/03/28 01:37:14;;;;;;;23.88;10.60;;;;;;;5.62;76.43;102572.25;5020750;28;20014;-80
2022/03/28 01:39:40;;;;;;;22.40;10.25;;;;;;;5.58;76.62;102565.94;5018523;28;20292;-80
2022/03/28 01:42:05;;;;;;;24.23;11.13;;;;;;;5.62;76.91;102567.09;5016144;28;20113;-80
2022/03/28 01:44:31;;;;;;;22.90;10.15;;;;;;;5.61;77.73;102565.28;5023438;28;20014;-80
2022/03/28 01:46:56;;;;;;;22.88;10.20;;;;;;;5.61;76.65;102564.38;5011062;28;20026;-79
2022/03/28 01:49:21;;;;;;;21.83;10.23;;;;;;;5.58;76.29;102562.47;5018499;28;20026;-79
2022/03/28 01:51:48;;;;;;;21.23;10.00;;;;;;;5.56;76.06;102564.97;5024526;28;20235;-80
2022/03/28 01:54:14;;;;;;;21.85;9.95;;;;;;;5.56;76.27;102556.28;5021698;28;20025;-80
2022/03/28 01:56:40;;;;;;;23.30;10.48;;;;;;;5.56;76.32;102564.97;5014627;28;20139;-79
2022/03/28 01:59:06;;;;;;;27.92;10.65;;;;;;;5.54;77.25;102565.63;5025917;28;20025;-80
2022/03/28 02:01:33;;;;;;;19.35;9.15;;;;;;;5.53;77.14;102564.75;5024343;28;20026;-79
2022/03/28 02:03:59;;;;;;;19.10;9.50;;;;;;;5.52;77.25;102568.09;5024330;28;20033;-79
2022/03/28 02:06:25;;;;;;;20.42;9.27;;;;;;;5.50;77.69;102563.59;5017930;28;20033;-80
2022/03/28 02:08:51;;;;;;;20.13;10.18;;;;;;;5.46;77.90;102556.41;5024178;28;20049;-79
2022/03/28 02:11:16;;;;;;;22.63;9.63;;;;;;;5.41;77.74;102556.09;5026524;28;20017;-79
2022/03/28 02:13:42;;;;;;;21.00;9.30;;;;;;;5.35;76.75;102551.38;5014574;28;20339;-79
2022/03/28 02:16:08;;;;;;;20.40;9.30;;;;;;;5.34;76.75;102551.25;5013819;28;20036;-79
2022/03/28 02:18:33;;;;;;;20.73;9.82;;;;;;;5.29;76.98;102553.50;5023273;28;20026;-79
2022/03/28 02:20:59;;;;;;;21.52;9.50;;;;;;;5.27;77.39;102549.94;5019528;28;20024;-79
2022/03/28 02:23:24;;;;;;;24.13;10.13;;;;;;;5.28;77.40;102549.13;5020089;28;20017;-80
2022/03/28 02:25:50;;;;;;;24.45;9.35;;;;;;;5.31;77.08;102549.34;5011924;28;20033;-79
2022/03/28 02:28:15;;;;;;;29.45;11.40;;;;;;;5.33;78.68;102546.88;5025444;28;20024;-79
2022/03/28 02:30:40;;;;;;;23.35;10.38;;;;;;;5.31;78.29;102546.75;5014375;28;20037;-79
2022/03/28 02:33:06;;;;;;;24.05;10.77;;;;;;;5.28;77.98;102543.97;5012973;28;20168;-79
2022/03/28 02:35:32;;;;;;;23.40;9.40;;;;;;;5.26;77.42;102542.03;5017708;28;20327;-79
2022/03/28 02:38:01;;;;;;;20.65;7.68;;;;;;;5.18;76.54;102536.31;5015563;28;20037;-79
2022/03/28 02:40:28;;;;;;;20.48;7.90;;;;;;;5.12;76.87;102534.19;5016337;28;20093;-79
2022/03/28 02:42:54;;;;;;;18.98;8.95;;;;;;;5.07;77.79;102526.88;5019269;28;20013;-79
2022/03/28 02:45:19;;;;;;;15.82;7.75;;;;;;;5.01;77.08;102523.09;5014601;28;20021;-79
2022/03/28 02:47:45;;;;;;;19.67;8.80;;;;;;;4.98;77.44;102515.13;5017026;28;20172;-79
2022/03/28 02:50:10;;;;;;;19.27;9.32;;;;;;;4.99;77.63;102516.00;5010304;28;20248;-79
2022/03/28 02:52:35;;;;;;;18.95;8.55;;;;;;;4.99;77.88;102514.31;5015497;28;20017;-79
2022/03/28 02:55:00;;;;;;;27.73;10.35;;;;;;;5.02;77.68;102513.63;5011750;28;20010;-79
2022/03/28 02:57:26;;;;;;;28.42;11.20;;;;;;;5.00;78.22;102500.63;5017316;28;20026;-79
2022/03/28 02:59:51;;;;;;;26.35;10.30;;;;;;;5.02;78.30;102506.78;5017667;28;20021;-79
2022/03/28 03:02:16;;;;;;;24.13;11.20;;;;;;;5.04;78.98;102505.22;5016817;28;20283;-79
2022/03/28 03:04:41;;;;;;;24.25;10.73;;;;;;;5.06;79.46;102507.91;5020488;28;20069;-79
2022/03/28 03:07:07;;;;;;;24.90;10.48;;;;;;;5.05;78.90;102500.94;5024856;28;20256;-78
2022/03/28 03:09:33;;;;;;;20.85;9.80;;;;;;;4.99;78.22;102503.09;5013097;28;20241;-78
2022/03/28 03:11:58;;;;;;;22.08;10.07;;;;;;;4.93;78.33;102498.38;5023502;28;20068;-79
2022/03/28 03:14:23;;;;;;;23.92;10.18;;;;;;;4.92;78.41;102491.41;5016762;28;20018;-78
2022/03/28 03:16:49;;;;;;;22.75;9.63;;;;;;;4.89;78.03;102493.75;5017071;28;20018;-78
2022/03/28 03:19:15;;;;;;;22.80;10.30;;;;;;;4.88;78.00;102491.94;5021905;28;20228;-78
2022/03/28 03:21:40;;;;;;;21.77;9.52;;;;;;;4.86;76.85;102490.94;5010234;28;20022;-78
2022/03/28 03:24:05;;;;;;;22.92;9.90;;;;;;;4.77;77.43;102492.88;5011374;28;20041;-78
2022/03/28 03:26:31;;;;;;;21.02;9.65;;;;;;;4.72;77.86;102494.19;5019140;28;20044;-78
2022/03/28 03:28:58;;;;;;;26.52;10.27;;;;;;;4.68;77.66;102477.59;5010437;28;20029;-78
2022/03/28 03:31:24;;;;;;;23.75;10.32;;;;;;;4.65;77.98;102490.25;5022336;28;20085;-78
2022/03/28 03:33:49;;;;;;;22.80;10.63;;;;;;;4.63;78.50;102497.88;5014947;28;20276;-78
2022/03/28 03:36:14;;;;;;;28.63;11.13;;;;;;;4.66;78.64;102480.06;5013792;28;20113;-79
2022/03/28 03:38:40;;;;;;;25.92;10.65;;;;;;;4.68;78.54;102487.94;5007842;28;20100;-79
2022/03/28 03:41:05;;;;;;;20.02;7.85;;;;;;;4.65;78.51;102480.84;5018509;28;20162;-79
2022/03/28 03:43:30;;;;;;;23.33;10.18;;;;;;;4.57;78.29;102474.22;5020483;28;20013;-79
2022/03/28 03:45:56;;;;;;;21.73;9.40;;;;;;;4.52;78.18;102466.13;5016154;28;20014;-79
2022/03/28 03:48:22;;;;;;;23.45;9.90;;;;;;;4.49;78.64;102475.31;5005460;28;20022;-79
2022/03/28 03:50:47;;;;;;;23.15;11.38;;;;;;;4.45;78.11;102469.03;5011990;28;20014;-79
2022/03/28 03:53:12;;;;;;;22.83;10.98;;;;;;;4.38;78.26;102471.94;5013796;28;20036;-79
2022/03/28 03:55:38;;;;;;;21.10;9.52;;;;;;;4.33;78.79;102462.94;5020153;28;20030;-79
2022/03/28 03:58:03;;;;;;;19.77;9.73;;;;;;;4.31;79.22;102460.25;5014195;28;20150;-79
2022/03/28 04:00:29;;;;;;;27.50;10.25;;;;;;;4.36;79.64;102458.03;5020320;28;20060;-79
2022/03/28 04:02:54;;;;;;;22.40;9.57;;;;;;;4.37;79.13;102452.06;5010892;28;20168;-79
2022/03/28 04:05:19;;;;;;;21.98;9.27;;;;;;;4.35;79.35;102454.53;5015058;28;20165;-79
2022/03/28 04:07:45;;;;;;;25.17;10.05;;;;;;;4.33;79.61;102452.63;5016407;28;20022;-79
2022/03/28 04:10:10;;;;;;;15.75;7.80;;;;;;;4.34;79.07;102450.19;5010266;28;20018;-79
2022/03/28 04:12:37;;;;;;;16.73;8.13;;;;;;;4.32;79.17;102451.72;5018822;28;20045;-79
2022/03/28 04:15:03;;;;;;;21.33;9.82;;;;;;;4.33;79.05;102455.19;5015243;28;20040;-79
2022/03/28 04:17:28;;;;;;;26.25;11.43;;;;;;;4.35;79.45;102443.31;5020960;28;20026;-79
2022/03/28 04:19:55;;;;;;;28.95;10.73;;;;;;;4.38;80.38;102451.28;5016017;28;20033;-79
2022/03/28 04:22:21;;;;;;;29.38;11.52;;;;;;;4.40;79.93;102443.66;5017618;28;20017;-79
2022/03/28 04:24:46;;;;;;;30.30;10.85;;;;;;;4.39;79.79;102442.78;5008122;28;20164;-79
2022/03/28 04:27:11;;;;;;;24.80;10.30;;;;;;;4.36;79.44;102432.22;5013121;28;20177;-79
2022/03/28 04:29:37;;;;;;;30.60;10.63;;;;;;;4.36;79.56;102434.81;5019674;28;20018;-79
2022/03/28 04:32:02;;;;;;;29.40;11.00;;;;;;;4.34;79.61;102433.78;5017012;28;20034;-79
2022/03/28 04:34:27;;;;;;;29.38;11.35;;;;;;;4.33;79.83;102438.06;5019808;28;20030;-79
2022/03/28 04:36:53;;;;;;;31.08;12.15;;;;;;;4.33;79.81;102439.72;5021157;28;20075;-79
2022/03/28 04:39:18;;;;;;;31.90;12.20;;;;;;;4.34;79.40;102442.44;5019794;28;20290;-78
2022/03/28 04:41:44;;;;;;;26.70;12.10;;;;;;;4.35;79.14;102440.75;5022002;28;20026;-78
2022/03/28 04:44:09;;;;;;;32.05;11.45;;;;;;;4.35;79.21;102456.22;5023684;28;20032;-78
2022/03/28 04:46:34;;;;;;;27.95;11.70;;;;;;;4.29;79.77;102451.50;5020353;28;20288;-78
2022/03/28 04:49:00;;;;;;;27.00;11.90;;;;;;;4.25;79.57;102451.16;5020619;28;20022;-78
2022/03/28 04:51:25;;;;;;;30.08;12.82;;;;;;;4.18;80.12;102447.22;5023105;28;20262;-78
2022/03/28 04:53:50;;;;;;;32.35;14.23;;;;;;;4.18;80.07;102447.22;5022559;28;20029;-78
2022/03/28 04:56:16;;;;;;;33.00;12.90;;;;;;;4.15;79.19;102447.00;5023562;28;20033;-78
2022/03/28 04:58:41;;;;;;;31.95;12.43;;;;;;;4.11;79.43;102440.72;5023695;28;20221;-78
2022/03/28 05:01:06;;;;;;;24.92;11.65;;;;;;;4.09;78.67;102444.84;5022976;28;20021;-79
2022/03/28 05:03:31;;;;;;;28.02;12.00;;;;;;;4.09;79.80;102446.53;5019284;28;20188;-78
2022/03/28 05:05:57;;;;;;;24.85;11.98;;;;;;;4.08;78.77;102440.44;5023168;28;20017;-78
2022/03/28 05:08:22;;;;;;;30.13;12.00;;;;;;;4.05;79.61;102447.97;5023879;28;20032;-78
2022/03/28 05:10:47;;;;;;;31.35;12.70;;;;;;;4.04;80.52;102438.44;5023696;28;20204;-78
2022/03/28 05:13:13;;;;;;;33.42;13.27;;;;;;;4.02;80.51;102444.28;5023781;28;20046;-78
2022/03/28 05:15:38;;;;;;;27.85;12.20;;;;;;;4.00;79.82;102445.03;5023605;28;20251;-78
2022/03/28 05:18:03;;;;;;;33.65;11.73;;;;;;;3.95;80.36;102448.97;5023589;28;20044;-78
2022/03/28 05:20:29;;;;;;;25.30;10.85;;;;;;;3.96;81.41;102443.00;5022247;28;20319;-78
2022/03/28 05:22:54;;;;;;;29.73;12.32;;;;;;;3.98;81.79;102444.03;5022566;28;20013;-78
2022/03/28 05:25:19;;;;;;;28.52;12.32;;;;;;;3.95;81.27;102437.72;5022127;28;20029;-78
2022/03/28 05:27:46;;;;;;;28.05;12.02;;;;;;;3.95;80.41;102441.22;5022049;28;20045;-78
2022/03/28 05:30:12;;;;;;;20.17;9.63;;;;;;;3.95;79.89;102441.22;5023216;28;20322;-78
2022/03/28 05:32:38;;;;;;;18.20;8.90;;;;;;;3.94;80.33;102447.16;5022990;28;20087;-78
2022/03/28 05:35:06;;;;;;;21.35;9.30;;;;;;;3.94;81.02;102443.66;5022093;28;20061;-78
2022/03/28 05:37:31;;;;;;;23.13;10.05;;;;;;;3.92;81.30;102438.38;5023165;28;20075;-78
2022/03/28 05:39:57;;;;;;;25.63;10.80;;;;;;;3.91;81.57;102444.34;5021859;28;20036;-78
2022/03/28 05:42:22;;;;;;;26.13;11.00;;;;;;;3.89;81.31;102437.28;5023445;28;20025;-78
2022/03/28 05:44:48;;;;;;;26.00;11.07;;;;;;;3.88;81.50;102440.63;5022286;28;20009;-78
2022/03/28 05:47:13;;;;;;;30.25;13.18;;;;;;;3.84;80.87;102439.50;5023446;28;20018;-78
2022/03/28 05:49:38;;;;;;;36.45;14.23;;;;;;;3.80;80.72;102432.31;5023177;28;20053;-78
2022/03/28 05:52:04;;;;;;;47.05;16.00;;;;;;;3.75;80.42;102438.78;5021749;28;20024;-78
2022/03/28 05:54:30;;;;;;;41.40;15.77;;;;;;;3.72;80.41;102438.56;5022976;28;20252;-78
2022/03/28 05:56:55;;;;;;;41.65;14.82;;;;;;;3.67;80.37;102429.56;5023192;28;20085;-78
2022/03/28 05:59:20;;;;;;;39.63;15.02;;;;;;;3.67;80.63;102427.88;5015614;28;20338;-78
2022/03/28 06:01:46;;;;;;;41.53;14.25;;;;;;;3.69;80.98;102425.44;5021893;28;20018;-78
2022/03/28 06:04:11;;;;;;;40.75;13.50;;;;;;;3.64;80.59;102433.69;5023133;28;20018;-78
2022/03/28 06:06:37;;;;;;;36.60;13.05;;;;;;;3.62;81.27;102427.53;5026873;28;20089;-78
2022/03/28 06:09:03;;;;;;;30.52;12.73;;;;;;;3.63;81.74;102419.00;5026737;28;20168;-78
2022/03/28 06:11:28;;;;;;;35.53;12.95;;;;;;;3.67;82.21;102425.31;5026775;28;20022;-78
2022/03/28 06:13:54;;;;;;;32.58;14.68;;;;;;;3.72;82.71;102418.84;5025578;28;20133;-78
2022/03/28 06:16:20;;;;;;;30.27;12.93;;;;;;;3.76;83.22;102431.16;5025096;28;20086;-78
2022/03/28 06:18:45;;;;;;;28.65;12.68;;;;;;;3.77;83.09;102426.94;5025305;28;20040;-78
2022/03/28 06:21:11;;;;;;;27.27;14.20;;;;;;;3.83;83.57;102430.84;5026353;28;20021;-78
2022/03/28 06:23:36;;;;;;;33.78;14.02;;;;;;;3.93;83.85;102429.88;5026273;28;20276;-78
2022/03/28 06:26:02;;;;;;;31.88;15.52;;;;;;;3.98;83.73;102419.91;5026629;28;20033;-79
2022/03/28 06:28:27;;;;;;;40.08;15.63;;;;;;;4.07;83.76;102419.69;5038087;28;20300;-78
2022/03/28 06:30:53;;;;;;;35.60;14.77;;;;;;;4.14;83.86;102419.38;5024882;28;20045;-78
2022/03/28 06:33:18;;;;;;;37.92;15.45;;;;;;;4.23;83.92;102416.59;5024299;28;20025;-78
2022/03/28 06:35:45;;;;;;;37.42;15.43;;;;;;;4.32;83.76;102418.19;5024976;28;20040;-78
2022/03/28 06:38:10;;;;;;;39.88;15.80;;;;;;;4.42;83.83;102413.69;5026400;28;20268;-78
2022/03/28 06:40:36;;;;;;;41.78;16.45;;;;;;;4.52;83.32;102413.63;5026181;28;20029;-78
2022/03/28 06:43:01;;;;;;;44.65;17.58;;;;;;;4.63;83.39;102422.13;5025861;28;20022;-78
2022/03/28 06:45:27;;;;;;;42.78;17.17;;;;;;;4.75;83.68;102415.28;5025899;28;20122;-78
2022/03/28 06:47:52;;;;;;;44.38;17.60;;;;;;;4.91;83.29;102418.97;5026074;28;20061;-79
2022/03/28 06:50:20;;;;;;;47.08;16.95;;;;;;;5.23;82.55;102424.75;5025954;28;20273;-78
2022/03/28 06:52:45;;;;;;;44.95;18.30;;;;;;;6.64;79.99;102420.44;5025626;28;20310;-78
2022/03/28 06:55:11;;;;;;;40.47;15.65;;;;;;;7.83;75.59;102416.66;5025803;28;20022;-79
2022/03/28 06:57:37;;;;;;;44.17;15.98;;;;;;;9.49;69.85;102408.69;5025688;28;20030;-78
2022/03/28 07:00:04;;;;;;;35.75;15.15;;;;;;;11.52;63.38;102406.44;5024442;28;20117;-79
2022/03/28 07:02:30;;;;;;;32.13;13.82;;;;;;;13.32;56.94;102405.09;5025286;28;20028;-79
2022/03/28 07:04:56;;;;;;;34.42;13.88;;;;;;;14.82;52.62;102398.91;5023402;28;20014;-79
2022/03/28 07:07:21;;;;;;;43.30;13.30;;;;;;;16.02;49.70;102391.84;5024550;28;20288;-79
2022/03/28 07:09:46;;;;;;;33.70;12.80;;;;;;;16.73;47.72;102384.75;5024336;28;20029;-79
2022/03/28 07:12:12;;;;;;;31.45;11.65;;;;;;;17.10;46.45;102388.25;5025313;28;20053;-79
2022/03/28 07:14:37;;;;;;;28.63;12.05;;;;;;;17.45;45.66;102378.47;5021210;28;20048;-79
2022/03/28 07:17:03;;;;;;;26.70;10.30;;;;;;;17.90;44.32;102388.13;5022827;28;20146;-79
2022/03/28 07:19:28;;;;;;;26.80;10.18;;;;;;;18.72;42.46;102396.47;5024354;28;20037;-79
2022/03/28 07:21:54;;;;;;;21.65;9.48;;;;;;;19.13;41.70;102384.72;5023466;28;20025;-79
2022/03/28 07:24:20;;;;;;;24.67;10.45;;;;;;;18.93;41.41;102374.81;5024581;28;20009;-79
2022/03/28 07:26:48;;;;;;;22.65;9.70;;;;;;;18.66;42.36;102376.13;5024359;28;20047;-79
2022/03/28 07:29:17;;;;;;;19.40;9.70;;;;;;;18.28;42.97;102370.25;5024150;28;20045;-79
2022/03/28 07:31:44;;;;;;;21.05;9.93;;;;;;;18.08;43.72;102377.00;5024105;28;20021;-79
2022/03/28 07:36:54;;;;;;;24.35;10.55;;;;;;;15.95;47.91;102371.50;5024147;28;20028;-79
2022/03/28 07:39:20;;;;;;;23.23;11.00;;;;;;;14.58;52.14;102378.88;5024094;28;20215;-79
2022/03/28 07:41:46;;;;;;;23.90;11.57;;;;;;;13.52;54.87;102379.69;5022992;28;20061;-79
2022/03/28 07:44:12;;;;;;;24.83;12.13;;;;;;;12.70;57.57;102367.84;5023842;28;20256;-79
2022/03/28 07:46:37;;;;;;;25.85;12.80;;;;;;;12.10;59.98;102370.66;5023658;28;20029;-79
2022/03/28 07:49:02;;;;;;;26.63;12.73;;;;;;;11.60;61.82;102359.78;5023856;28;20253;-80
2022/03/28 07:51:28;;;;;;;26.90;13.18;;;;;;;11.22;63.58;102356.34;5024186;28;20056;-80
2022/03/28 07:53:54;;;;;;;28.52;14.30;;;;;;;10.88;64.91;102352.22;5024247;28;20072;-79
2022/03/28 07:56:20;;;;;;;25.60;13.13;;;;;;;10.72;66.01;102346.28;5024072;28;20064;-79
2022/03/28 07:58:46;;;;;;;30.58;13.73;;;;;;;10.55;67.43;102344.56;5021408;28;20018;-79
2022/03/28 08:01:11;;;;;;;27.88;14.10;;;;;;;10.46;68.56;102344.13;5032975;28;20040;-79
2022/03/28 08:03:37;;;;;;;28.27;13.43;;;;;;;10.43;68.93;102352.72;5027946;28;20018;-79
2022/03/28 08:06:02;;;;;;;29.75;13.73;;;;;;;10.44;69.47;102364.88;5023813;28;20252;-79
2022/03/28 08:08:28;;;;;;;27.55;14.27;;;;;;;10.45;69.05;102361.47;5025323;28;20053;-79
2022/03/28 08:10:54;;;;;;;28.88;14.15;;;;;;;10.42;68.51;102345.69;5035554;28;20022;-79
2022/03/28 08:13:19;;;;;;;28.00;14.05;;;;;;;10.36;68.82;102353.22;5023872;28;20030;-79
2022/03/28 08:15:44;;;;;;;29.10;14.70;;;;;;;10.37;70.39;102352.38;5022693;28;20049;-79
2022/03/28 08:18:10;;;;;;;30.45;15.60;;;;;;;10.42;71.37;102350.91;5023595;28;20216;-79
2022/03/28 08:20:35;;;;;;;28.48;14.80;;;;;;;10.47;70.01;102348.53;5023479;28;20088;-79
2022/03/28 08:23:00;;;;;;;35.42;15.98;;;;;;;10.49;69.84;102337.34;5023975;28;20229;-79
2022/03/28 08:25:26;;;;;;;31.02;16.67;;;;;;;10.50;69.06;102336.53;5023673;28;20017;-79
2022/03/28 08:27:51;;;;;;;32.00;15.25;;;;;;;10.55;69.33;102337.63;5023502;28;20017;-79
2022/03/28 08:30:17;;;;;;;29.25;16.10;;;;;;;10.57;69.06;102335.09;5027245;28;20040;-79
2022/03/28 08:32:43;;;;;;;33.75;15.90;;;;;;;10.56;69.26;102336.84;5031922;28;20063;-79
2022/03/28 08:35:09;;;;;;;32.88;16.50;;;;;;;10.60;70.25;102330.94;5023679;28;20115;-78
2022/03/28 08:37:36;;;;;;;28.05;15.57;;;;;;;10.77;71.73;102336.06;5034052;28;20021;-78
2022/03/28 08:40:01;;;;;;;29.80;15.75;;;;;;;10.89;70.32;102328.81;5026145;28;20022;-78
2022/03/28 08:42:26;;;;;;;36.08;17.25;;;;;;;10.98;70.18;102327.44;5023282;28;20029;-78
2022/03/28 08:44:53;;;;;;;33.90;17.30;;;;;;;11.06;70.03;102328.69;5022834;28;20088;-78
2022/03/28 08:47:21;;;;;;;31.67;17.80;;;;;;;11.14;70.61;102319.50;5022168;28;20045;-78
2022/03/28 08:49:48;;;;;;;32.00;17.42;;;;;;;11.25;69.28;102328.72;5022982;28;20283;-78
2022/03/28 08:52:13;;;;;;;34.53;17.95;;;;;;;11.25;67.93;102323.50;5023487;28;20033;-78
2022/03/28 08:54:39;;;;;;;35.42;17.73;;;;;;;11.35;69.05;102310.84;5023540;28;20018;-78
2022/03/28 08:57:04;;;;;;;31.90;17.08;;;;;;;11.46;69.55;102312.19;5023028;28;20030;-78
2022/03/28 08:59:30;;;;;;;36.38;18.67;;;;;;;11.51;67.23;102317.63;5021286;28;20025;-78
2022/03/28 09:01:55;;;;;;;33.78;18.38;;;;;;;11.56;67.21;102317.00;5034507;28;20049;-78
2022/03/28 09:04:20;;;;;;;34.08;17.92;;;;;;;11.62;67.56;102313.75;5023305;28;20243;-78
2022/03/28 09:06:45;;;;;;;32.65;17.15;;;;;;;11.72;68.03;102321.16;5023231;28;20025;-78
2022/03/28 09:09:16;;;;;;;34.47;16.80;;;;;;;11.81;67.51;102318.03;5022308;28;20037;-78
2022/03/28 09:11:45;;;;;;;31.23;16.73;;;;;;;11.90;67.55;102315.81;5022885;28;20033;-78
2022/03/28 09:14:27;;;;;;;35.38;17.38;;;;;;;12.03;67.76;102311.13;5021575;28;20036;-78
2022/03/28 09:17:06;;;;;;;35.95;17.52;;;;;;;12.16;66.54;102305.56;5021025;28;20109;-78
2022/03/28 09:19:47;;;;;;;34.72;17.48;;;;;;;12.26;65.81;102301.63;5023304;28;20105;-79
2022/03/28 09:22:19;;;;;;;35.13;17.90;;;;;;;12.33;65.95;102304.53;5023492;28;20026;-78
2022/03/28 09:24:45;;;;;;;37.15;19.02;;;;;;;12.39;65.29;102303.00;5024035;28;20028;-78
2022/03/28 09:27:21;;;;;;;36.50;18.63;;;;;;;12.47;65.28;102304.19;5022412;28;20006;-79
2022/03/28 09:29:53;;;;;;;37.90;18.48;;;;;;;12.60;66.00;102297.72;5023440;28;20060;-79
2022/03/28 09:32:24;;;;;;;38.70;19.35;;;;;;;12.68;64.02;102294.56;5022199;28;20018;-79
2022/03/28 09:35:12;;;;;;;34.90;18.98;;;;;;;12.78;64.70;102298.41;5009311;28;20066;-79
2022/03/28 09:38:02;;;;;;;33.73;18.47;;;;;;;12.91;65.24;102296.28;5023271;28;20013;-79
2022/03/28 09:40:32;;;;;;;36.35;18.80;;;;;;;13.00;64.06;102289.63;5018320;28;20248;-79
2022/03/28 09:42:59;;;;;;;37.65;18.60;;;;;;;13.10;64.68;102282.16;5027272;28;20013;-79
2022/03/28 09:45:38;;;;;;;39.25;18.70;;;;;;;13.24;66.58;102283.53;5026107;28;20085;-79
2022/03/28 09:48:09;;;;;;;38.15;18.45;;;;;;;13.36;63.84;102276.13;5012933;28;20033;-79
2022/03/28 09:50:41;;;;;;;40.78;20.20;;;;;;;13.49;65.47;102282.69;5027026;28;20025;-79
2022/03/28 09:53:13;;;;;;;42.25;20.50;;;;;;;13.60;63.88;102279.53;5026810;28;20018;-79
2022/03/28 09:56:01;;;;;;;44.72;20.73;;;;;;;13.69;62.86;102285.13;5025875;28;20045;-79
2022/03/28 09:58:47;;;;;;;39.97;20.65;;;;;;;13.77;62.92;102277.50;5027188;28;20044;-80
2022/03/28 10:01:24;;;;;;;49.15;22.02;;;;;;;13.85;62.10;102268.19;5026864;28;20117;-80
2022/03/28 10:04:01;;;;;;;44.90;21.85;;;;;;;13.94;61.15;102275.47;5026900;28;20081;-80
2022/03/28 10:06:26;;;;;;;44.45;21.60;;;;;;;13.99;61.15;102268.63;5026858;28;20018;-80
2022/03/28 10:08:52;;;;;;;38.05;21.10;;;;;;;14.06;60.66;102266.25;5026840;28;20022;-80
2022/03/28 10:11:17;;;;;;;38.90;20.55;;;;;;;14.14;60.59;102261.25;5026724;28;20026;-80
2022/03/28 10:13:43;;;;;;;41.72;21.73;;;;;;;14.24;59.80;102265.94;5025563;28;20088;-80
2022/03/28 10:16:09;;;;;;;46.47;22.45;;;;;;;14.34;60.29;102256.63;5026621;28;20030;-80
2022/03/28 10:18:37;;;;;;;40.05;20.85;;;;;;;14.43;59.02;102251.66;5024844;28;20022;-80
2022/03/28 10:21:32;;;;;;;41.80;21.52;;;;;;;14.52;59.74;102258.03;5025435;28;20024;-80
2022/03/28 10:24:29;;;;;;;43.67;21.92;;;;;;;14.59;58.66;102254.75;5024984;28;20036;-81
2022/03/28 10:26:57;;;;;;;37.50;20.38;;;;;;;14.69;58.33;102253.34;5014402;28;20038;-81
2022/03/28 10:29:23;;;;;;;42.03;21.38;;;;;;;14.77;58.93;102239.59;5025194;28;20149;-81
2022/03/28 10:31:51;;;;;;;36.08;19.92;;;;;;;14.87;56.38;102239.84;5025165;28;20056;-81
2022/03/28 10:34:59;;;;;;;37.97;20.13;;;;;;;14.90;58.21;102235.59;5026313;28;20018;-81
2022/03/28 10:37:39;;;;;;;41.33;21.00;;;;;;;14.99;58.21;102229.69;5025840;28;20158;-81
2022/03/28 10:40:31;;;;;;;40.22;19.90;;;;;;;15.07;57.16;102225.53;5025257;28;20014;-81
2022/03/28 10:43:05;;;;;;;39.65;19.27;;;;;;;15.07;54.88;102220.28;5019688;28;20269;-81
2022/03/28 10:45:36;;;;;;;45.10;20.23;;;;;;;15.18;58.05;102215.34;5039405;28;20018;-82
2022/03/28 10:48:03;;;;;;;36.55;19.45;;;;;;;15.23;55.21;102208.44;5025887;28;20033;-80
2022/03/28 10:50:33;;;;;;;38.88;19.50;;;;;;;15.35;56.77;102202.66;5025843;28;20030;-80
2022/03/28 10:53:14;;;;;;;38.83;18.60;;;;;;;15.45;54.27;102204.66;5025757;28;20017;-80
2022/03/28 10:55:59;;;;;;;38.22;18.13;;;;;;;15.56;55.44;102211.91;5025780;28;20030;-80
2022/03/28 10:58:29;;;;;;;37.83;18.25;;;;;;;15.59;53.62;102212.00;5025698;28;20021;-80
2022/03/28 11:01:11;;;;;;;38.80;19.70;;;;;;;15.57;54.40;102206.69;5025759;28;20113;-80
2022/03/28 11:04:16;;;;;;;37.75;19.15;;;;;;;15.62;54.66;102207.69;5035649;28;20009;-81
2022/03/28 11:07:05;;;;;;;38.92;18.88;;;;;;;15.71;55.37;102200.88;5024579;28;20076;-80
2022/03/28 11:09:54;;;;;;;37.58;19.73;;;;;;;15.83;55.89;102198.59;5025478;28;20073;-81
2022/03/28 11:12:32;;;;;;;;;;;;;;;15.91;56.04;102201.41;5024800;28;20010;-81
2022/03/28 11:15:03;;;;;;;38.70;20.52;;;;;;;15.98;54.03;102188.44;5025762;28;19898;-81
2022/03/28 11:17:30;;;;;;;40.03;22.00;;;;;;;16.05;53.79;102188.56;5025608;28;20029;-81
2022/03/28 11:19:57;;;;;;;41.30;22.98;;;;;;;16.07;52.32;102179.84;5024996;28;20034;-81
2022/03/28 11:22:51;;;;;;;39.25;22.05;;;;;;;16.12;54.05;102183.50;5025174;28;20030;-80
2022/03/28 11:25:44;;;;;;;38.15;21.30;;;;;;;16.19;53.64;102181.84;5025257;28;20193;-80